Time;durP1;ratioP1;P1;durP2;ratioP2;P2;SDS_P1;SDS_P2;PMS_P1;PMS_P2;Temp;Humidity;BMP_temperature;BMP_pressure;BME280_temperature;BME280_humidity;BME280_pressure;Samples;Min_cycle;Max_cycle;Signal;HPM_P1;HPM_P2
2022/02/23 00:04:08;;;;;;;0.00;0.00;;;;;;;4.64;100.00;101358.03;10439553;28;20021;-73
2022/02/23 00:09:09;;;;;;;0.00;0.00;;;;;;;4.69;100.00;101370.91;10436067;28;20650;-73
2022/02/23 00:14:09;;;;;;;0.00;0.00;;;;;;;4.70;100.00;101393.69;10432694;28;20085;-72
2022/02/23 00:19:09;;;;;;;0.00;0.00;;;;;;;4.78;100.00;101403.72;10445356;22;20310;-71
2022/02/23 00:24:10;;;;;;;0.00;0.00;;;;;;;4.87;100.00;101418.91;10448610;28;20021;-70
2022/02/23 00:29:10;;;;;;;0.00;0.00;;;;;;;4.90;100.00;101419.53;10426908;28;20387;-71
2022/02/23 00:34:10;;;;;;;0.00;0.00;;;;;;;4.89;100.00;101435.50;10411040;28;20345;-71
2022/02/23 00:39:11;;;;;;;0.00;0.00;;;;;;;4.98;100.00;101437.50;10450419;28;20024;-71
2022/02/23 00:44:11;;;;;;;0.00;0.00;;;;;;;5.04;100.00;101455.53;10428943;28;20375;-70
2022/02/23 00:49:12;;;;;;;0.00;0.00;;;;;;;5.06;100.00;101447.50;10439768;28;20018;-71
2022/02/23 00:54:13;;;;;;;0.00;0.00;;;;;;;5.07;100.00;101454.47;10442138;28;20078;-71
2022/02/23 00:59:13;;;;;;;0.00;0.00;;;;;;;5.11;100.00;101450.66;10433565;28;20112;-71
2022/02/23 01:04:13;;;;;;;0.00;0.00;;;;;;;5.13;100.00;101468.09;10422565;28;20408;-70
2022/02/23 01:09:16;;;;;;;0.00;0.00;;;;;;;5.17;100.00;101476.63;10433516;28;20730;-71
2022/02/23 01:14:17;;;;;;;0.00;0.00;;;;;;;5.21;100.00;101468.41;10430751;28;20363;-71
2022/02/23 01:19:17;;;;;;;0.00;0.00;;;;;;;5.22;100.00;101491.19;10436096;28;20461;-71
2022/02/23 01:24:18;;;;;;;0.00;0.00;;;;;;;5.18;100.00;101497.66;10428840;28;20021;-71
2022/02/23 01:29:18;;;;;;;0.00;0.00;;;;;;;5.14;100.00;101496.16;10435944;28;20280;-71
2022/02/23 01:34:19;;;;;;;0.00;0.00;;;;;;;5.10;100.00;101504.44;10435273;28;20055;-71
2022/02/23 01:39:19;;;;;;;0.00;0.00;;;;;;;5.04;100.00;101503.06;10432670;28;20260;-71
2022/02/23 01:44:19;;;;;;;0.00;0.00;;;;;;;4.96;100.00;101508.03;10444983;28;20046;-71
2022/02/23 01:49:20;;;;;;;0.00;0.00;;;;;;;4.92;100.00;101520.59;10430336;28;20271;-70
2022/02/23 01:54:20;;;;;;;0.00;0.00;;;;;;;4.87;100.00;101520.06;10440167;28;20476;-70
2022/02/23 01:59:21;;;;;;;0.00;0.00;;;;;;;4.83;100.00;101520.38;10434658;28;20037;-71
2022/02/23 02:04:21;;;;;;;0.00;0.00;;;;;;;4.82;100.00;101524.81;10426905;28;20483;-71
2022/02/23 02:09:22;;;;;;;0.00;0.00;;;;;;;4.78;100.00;101552.38;10432205;28;20108;-70
2022/02/23 02:14:22;;;;;;;0.00;0.00;;;;;;;4.72;100.00;101558.06;10430271;28;20075;-71
2022/02/23 02:19:22;;;;;;;0.00;0.00;;;;;;;4.74;100.00;101578.13;10431087;28;20033;-71
2022/02/23 02:24:31;;;;;;;0.00;0.00;;;;;;;4.85;100.00;101582.66;10430300;28;20527;-71
2022/02/23 02:29:33;;;;;;;0.00;0.00;;;;;;;4.93;100.00;101604.13;10435689;28;20032;-71
2022/02/23 02:34:33;;;;;;;0.00;0.00;;;;;;;4.98;100.00;101602.03;10422952;28;20033;-71
2022/02/23 02:39:37;;;;;;;0.00;0.00;;;;;;;5.03;100.00;101606.97;10425216;28;20033;-71
2022/02/23 02:44:37;;;;;;;0.00;0.00;;;;;;;5.13;100.00;101617.78;10432103;28;20012;-71
2022/02/23 02:49:37;;;;;;;0.00;0.00;;;;;;;5.22;100.00;101619.78;10430209;28;20388;-71
2022/02/23 02:54:38;;;;;;;0.00;0.00;;;;;;;5.26;100.00;101618.63;10432999;28;20033;-71
2022/02/23 02:59:39;;;;;;;0.00;0.00;;;;;;;5.24;100.00;101641.66;10425493;28;20409;-71
2022/02/23 03:04:39;;;;;;;0.00;0.00;;;;;;;5.18;100.00;101637.66;10431558;28;20427;-71
2022/02/23 03:09:39;;;;;;;0.00;0.00;;;;;;;5.17;100.00;101646.50;10427865;28;20464;-71
2022/02/23 03:14:40;;;;;;;0.00;0.00;;;;;;;5.26;100.00;101649.47;10428588;28;20028;-70
2022/02/23 03:19:40;;;;;;;0.00;0.00;;;;;;;5.28;100.00;101658.97;10432838;28;20036;-71
2022/02/23 03:24:40;;;;;;;0.00;0.00;;;;;;;5.29;100.00;101665.09;10425862;28;20025;-71
2022/02/23 03:29:41;;;;;;;0.00;0.00;;;;;;;5.31;100.00;101668.50;10433011;28;20056;-71
2022/02/23 03:34:41;;;;;;;0.00;0.00;;;;;;;5.31;100.00;101687.84;10430952;28;20026;-71
2022/02/23 03:39:41;;;;;;;0.00;0.00;;;;;;;5.30;100.00;101691.44;10426999;28;20066;-71
2022/02/23 03:44:42;;;;;;;0.00;0.00;;;;;;;5.25;100.00;101695.34;10428793;28;20025;-71
2022/02/23 03:49:42;;;;;;;0.00;0.00;;;;;;;5.25;100.00;101712.03;10440638;28;20511;-71
2022/02/23 03:54:43;;;;;;;0.00;0.00;;;;;;;5.23;100.00;101724.47;10444905;28;20108;-71
2022/02/23 03:59:43;;;;;;;0.00;0.00;;;;;;;5.23;100.00;101713.91;10436567;28;20104;-71
2022/02/23 04:04:43;;;;;;;0.00;0.00;;;;;;;5.26;100.00;101729.56;10440740;28;20017;-71
2022/02/23 04:09:48;;;;;;;0.00;0.00;;;;;;;5.26;100.00;101748.03;10440459;28;20022;-71
2022/02/23 04:14:48;;;;;;;0.00;0.00;;;;;;;5.26;100.00;101752.50;10438442;28;20365;-71
2022/02/23 04:19:48;;;;;;;0.10;0.10;;;;;;;5.22;100.00;101754.50;10448570;28;20021;-70
2022/02/23 04:24:49;;;;;;;0.00;0.00;;;;;;;5.21;100.00;101763.38;10441810;28;20021;-70
2022/02/23 04:29:49;;;;;;;0.00;0.00;;;;;;;5.19;100.00;101775.81;10433341;28;20076;-70
2022/02/23 04:34:49;;;;;;;0.00;0.00;;;;;;;5.18;100.00;101787.34;10417788;28;20075;-70
2022/02/23 04:39:50;;;;;;;0.00;0.00;;;;;;;5.19;100.00;101794.31;10438027;28;20029;-70
2022/02/23 04:44:50;;;;;;;0.00;0.00;;;;;;;5.17;100.00;101801.47;10434765;28;20013;-70
2022/02/23 04:49:50;;;;;;;0.03;0.03;;;;;;;5.14;100.00;101802.53;10440296;28;20427;-70
2022/02/23 04:54:53;;;;;;;0.00;0.00;;;;;;;5.13;100.00;101806.13;10441908;28;20047;-70
2022/02/23 04:59:54;;;;;;;0.00;0.00;;;;;;;5.09;100.00;101812.56;10433601;28;20082;-71
2022/02/23 05:04:55;;;;;;;0.00;0.00;;;;;;;5.07;100.00;101818.91;10428456;28;20060;-70
2022/02/23 05:09:56;;;;;;;0.00;0.00;;;;;;;5.08;100.00;101833.78;10433939;28;20472;-71
2022/02/23 05:14:56;;;;;;;0.00;0.00;;;;;;;5.09;100.00;101840.75;10418008;28;20040;-70
2022/02/23 05:19:56;;;;;;;0.00;0.00;;;;;;;5.08;100.00;101841.69;10424430;28;20031;-71
2022/02/23 05:24:57;;;;;;;0.00;0.00;;;;;;;5.03;100.00;101854.34;10431313;28;20021;-71
2022/02/23 05:29:57;;;;;;;0.00;0.00;;;;;;;4.95;100.00;101865.41;10431856;28;20024;-71
2022/02/23 05:34:57;;;;;;;0.00;0.00;;;;;;;4.89;100.00;101869.28;10432136;28;20029;-70
2022/02/23 05:39:58;;;;;;;0.00;0.00;;;;;;;4.96;100.00;101885.59;10428397;28;20260;-70
2022/02/23 05:44:58;;;;;;;0.00;0.00;;;;;;;4.96;100.00;101897.00;10433688;28;20013;-70
2022/02/23 05:49:59;;;;;;;0.00;0.00;;;;;;;4.93;100.00;101899.81;10428021;28;20112;-70
2022/02/23 05:54:59;;;;;;;0.00;0.00;;;;;;;4.83;100.00;101911.91;10429880;28;20079;-70
2022/02/23 06:00:01;;;;;;;0.00;0.00;;;;;;;4.70;100.00;101918.88;10434686;28;20020;-70
2022/02/23 06:05:01;;;;;;;0.00;0.00;;;;;;;4.60;100.00;101928.31;10424860;28;20251;-70
2022/02/23 06:10:02;;;;;;;0.00;0.00;;;;;;;4.54;100.00;101940.94;10426344;28;20079;-70
2022/02/23 06:15:02;;;;;;;0.00;0.00;;;;;;;4.54;100.00;101943.59;10432830;28;20272;-70
2022/02/23 06:20:03;;;;;;;0.00;0.00;;;;;;;4.58;100.00;101957.44;10454192;22;20487;-73
2022/02/23 06:25:04;;;;;;;0.00;0.00;;;;;;;4.53;100.00;101967.41;10457260;28;20067;-74
2022/02/23 06:30:05;;;;;;;0.00;0.00;;;;;;;4.53;100.00;101970.03;10444344;28;20433;-74
2022/02/23 06:35:06;;;;;;;0.00;0.00;;;;;;;4.55;100.00;101976.09;10448553;28;20108;-74
2022/02/23 06:40:08;;;;;;;0.00;0.00;;;;;;;4.56;100.00;101975.13;10444435;28;20491;-74
2022/02/23 06:45:09;;;;;;;0.00;0.00;;;;;;;4.58;100.00;101978.53;10446072;28;20468;-73
2022/02/23 06:50:09;;;;;;;0.00;0.00;;;;;;;4.60;100.00;101989.03;10446188;28;20028;-74
2022/02/23 06:55:11;;;;;;;0.00;0.00;;;;;;;4.63;100.00;101996.75;10441066;28;20021;-73
2022/02/23 07:00:12;;;;;;;0.00;0.00;;;;;;;4.66;100.00;102007.13;10440584;28;20028;-73
2022/02/23 07:05:12;;;;;;;0.00;0.00;;;;;;;4.72;100.00;102004.94;10446425;28;20472;-73
2022/02/23 07:10:24;;;;;;;0.00;0.00;;;;;;;4.81;100.00;102022.03;10446043;28;20021;-73
2022/02/23 07:15:25;;;;;;;0.00;0.00;;;;;;;4.90;100.00;102029.38;10441195;28;20108;-73
2022/02/23 07:20:25;;;;;;;0.00;0.00;;;;;;;4.94;100.00;102036.16;10441897;28;20111;-73
2022/02/23 07:25:26;;;;;;;0.00;0.00;;;;;;;5.03;100.00;102052.41;10443706;28;20036;-74
2022/02/23 07:30:26;;;;;;;0.00;0.00;;;;;;;5.08;100.00;102045.06;10442669;28;20267;-74
2022/02/23 07:35:27;;;;;;;0.00;0.00;;;;;;;5.15;100.00;102046.41;10428393;28;20434;-73
2022/02/23 07:40:27;;;;;;;0.00;0.00;;;;;;;5.22;100.00;102059.09;10443365;28;20113;-73
2022/02/23 07:45:28;;;;;;;0.00;0.00;;;;;;;5.32;100.00;102062.03;10428691;28;20017;-74
2022/02/23 07:50:30;;;;;;;0.00;0.00;;;;;;;5.44;100.00;102069.22;10447002;28;20501;-73
2022/02/23 07:55:31;;;;;;;0.00;0.00;;;;;;;5.53;100.00;102075.72;10437526;28;20448;-73
2022/02/23 08:00:31;;;;;;;0.00;0.00;;;;;;;5.72;100.00;102083.31;10425968;28;20029;-73
2022/02/23 08:05:32;;;;;;;0.00;0.00;;;;;;;6.00;100.00;102092.19;10441855;28;20023;-72
2022/02/23 08:10:32;;;;;;;0.03;0.03;;;;;;;6.06;100.00;102091.78;10441950;28;20021;-73
2022/02/23 08:20:52;;;;;;;0.03;0.03;;;;;;;5.96;100.00;102112.69;10434208;28;20726;-72
2022/02/23 08:25:53;;;;;;;0.00;0.00;;;;;;;5.97;100.00;102118.84;10424610;28;20017;-73
2022/02/23 08:30:53;;;;;;;0.00;0.00;;;;;;;5.94;100.00;102130.47;10423149;28;20537;-72
2022/02/23 08:35:53;;;;;;;0.00;0.00;;;;;;;6.17;100.00;102134.28;10439580;28;20376;-72
2022/02/23 08:40:53;;;;;;;0.00;0.00;;;;;;;7.01;100.00;102128.72;10446443;28;20326;-72
2022/02/23 08:45:54;;;;;;;0.00;0.00;;;;;;;7.35;100.00;102131.69;10449374;28;20396;-73
2022/02/23 08:50:55;;;;;;;0.10;0.10;;;;;;;7.63;100.00;102135.91;10450695;28;20025;-73
2022/02/23 08:55:55;;;;;;;0.10;0.10;;;;;;;7.79;100.00;102134.81;10450361;28;20388;-72
2022/02/23 09:00:55;;;;;;;0.00;0.00;;;;;;;7.85;100.00;102131.72;10444440;28;20025;-72
2022/02/23 09:05:56;;;;;;;0.10;0.10;;;;;;;7.99;100.00;102136.91;10445661;28;20025;-72
2022/02/23 09:10:56;;;;;;;0.00;0.00;;;;;;;8.53;100.00;102136.53;10436766;28;20086;-72
2022/02/23 09:15:57;;;;;;;0.08;0.08;;;;;;;8.59;100.00;102140.53;10430550;28;20033;-72
2022/02/23 09:20:57;;;;;;;0.00;0.00;;;;;;;9.03;100.00;102144.31;10443357;28;20460;-72
2022/02/23 09:25:58;;;;;;;0.10;0.10;;;;;;;8.50;100.00;102139.41;10447772;28;20013;-72
2022/02/23 09:30:58;;;;;;;0.00;0.00;;;;;;;8.69;100.00;102151.31;10445256;28;20350;-72
2022/02/23 09:36:02;;;;;;;0.07;0.07;;;;;;;8.88;100.00;102151.63;10435915;28;20075;-72
2022/02/23 09:41:05;;;;;;;0.10;0.10;;;;;;;9.03;99.16;102160.25;10423641;28;20492;-72
2022/02/23 09:46:08;;;;;;;0.10;0.10;;;;;;;8.74;99.04;102159.78;10417470;28;20263;-72
2022/02/23 09:51:10;;;;;;;0.10;0.10;;;;;;;8.78;100.00;102164.75;10429218;28;20017;-72
2022/02/23 09:56:15;;;;;;;0.10;0.10;;;;;;;9.02;100.00;102163.91;10448405;28;20032;-72
2022/02/23 10:01:15;;;;;;;0.10;0.10;;;;;;;8.86;100.00;102166.84;10423674;28;20082;-72
2022/02/23 10:06:33;;;;;;;0.00;0.00;;;;;;;8.99;99.42;102167.63;10428902;28;20015;-71
2022/02/23 10:11:34;;;;;;;0.10;0.10;;;;;;;8.90;98.47;102168.31;10444532;28;20027;-73
2022/02/23 10:16:39;;;;;;;0.10;0.10;;;;;;;8.94;99.43;102172.44;10431503;28;20465;-73
2022/02/23 10:21:51;;;;;;;0.10;0.10;;;;;;;8.97;99.08;102174.84;10425437;28;20025;-72
2022/02/23 10:27:21;;;;;;;0.10;0.10;;;;;;;9.21;98.26;102180.13;10422081;28;20434;-72
2022/02/23 10:32:24;;;;;;;0.10;0.10;;;;;;;9.19;95.47;102178.53;10432544;28;20655;-72
2022/02/23 10:37:27;;;;;;;0.10;0.10;;;;;;;9.12;97.62;102172.84;10437638;28;20028;-72
2022/02/23 10:42:30;;;;;;;0.10;0.10;;;;;;;8.96;94.35;102170.50;10420531;28;20453;-72
2022/02/23 10:47:33;;;;;;;0.10;0.10;;;;;;;8.84;95.14;102174.06;10437360;28;20021;-72
2022/02/23 10:52:37;;;;;;;0.10;0.10;;;;;;;8.88;96.30;102178.22;10433553;28;20028;-73
2022/02/23 10:57:46;;;;;;;0.00;0.00;;;;;;;8.87;93.35;102187.13;10438254;28;20025;-72
2022/02/23 11:02:47;;;;;;;0.00;0.00;;;;;;;8.76;91.91;102192.41;10426594;28;20366;-73
2022/02/23 11:07:47;;;;;;;0.00;0.00;;;;;;;8.66;90.84;102200.19;10403860;28;20013;-73
2022/02/23 11:12:53;;;;;;;0.10;0.10;;;;;;;8.67;90.40;102199.25;10407521;28;20025;-73
2022/02/23 11:17:55;;;;;;;0.10;0.10;;;;;;;8.68;92.42;102206.25;10408942;28;20025;-74
2022/02/23 11:23:00;;;;;;;0.00;0.00;;;;;;;8.64;87.71;102199.50;10410249;28;20420;-73
2022/02/23 11:28:19;;;;;;;0.10;0.10;;;;;;;8.66;89.03;102200.19;10391341;28;20054;-73
2022/02/23 11:33:57;;;;;;;0.10;0.10;;;;;;;8.65;88.54;102203.00;10408474;28;20667;-73
2022/02/23 11:39:03;;;;;;;0.10;0.10;;;;;;;8.65;86.36;102198.53;10415778;28;20199;-73
2022/02/23 11:44:15;;;;;;;0.10;0.10;;;;;;;8.70;87.93;102206.16;10395250;28;20022;-73
2022/02/23 11:49:16;;;;;;;0.00;0.00;;;;;;;8.71;86.60;102190.09;10396074;28;20029;-73
2022/02/23 11:54:50;;;;;;;0.03;0.03;;;;;;;8.61;86.90;102195.25;10408410;28;20017;-72
2022/02/23 11:59:50;;;;;;;0.10;0.10;;;;;;;8.59;85.85;102197.16;10411110;28;20033;-73
2022/02/23 12:04:52;;;;;;;0.10;0.10;;;;;;;8.58;82.26;102192.81;10413119;28;20017;-72
2022/02/23 12:09:52;;;;;;;0.00;0.00;;;;;;;8.61;82.88;102189.94;10402624;28;20068;-73
2022/02/23 12:14:53;;;;;;;0.00;0.00;;;;;;;8.63;82.28;102184.50;10400103;28;20075;-73
2022/02/23 12:19:55;;;;;;;0.00;0.00;;;;;;;8.74;81.62;102181.06;10475449;22;20042;-73
2022/02/23 12:24:55;;;;;;;0.00;0.00;;;;;;;9.02;81.92;102182.50;10568207;27;20024;-71
2022/02/23 12:29:58;;;;;;;0.10;0.10;;;;;;;9.19;82.25;102182.06;10548665;28;20026;-70
2022/02/23 12:35:00;;;;;;;0.10;0.10;;;;;;;9.18;80.90;102182.16;10542442;28;20095;-70
2022/02/23 12:40:02;;;;;;;0.10;0.10;;;;;;;9.21;82.12;102166.81;10522751;28;20028;-70
2022/02/23 12:45:03;;;;;;;0.00;0.00;;;;;;;9.10;79.83;102156.16;10544152;28;20014;-70
2022/02/23 12:50:06;;;;;;;0.00;0.00;;;;;;;9.13;80.64;102152.41;10523403;28;20022;-71
2022/02/23 12:55:08;;;;;;;0.00;0.00;;;;;;;9.42;83.12;102156.34;10521591;28;20020;-71
2022/02/23 13:00:09;;;;;;;0.10;0.10;;;;;;;9.56;77.61;102138.47;10547162;28;20265;-70
2022/02/23 13:05:10;;;;;;;0.10;0.10;;;;;;;9.43;78.07;102138.59;10543358;28;20081;-70
2022/02/23 13:10:10;;;;;;;0.10;0.10;;;;;;;9.24;79.03;102131.19;10534488;28;20070;-70
2022/02/23 13:15:11;;;;;;;0.10;0.10;;;;;;;9.26;80.56;102135.41;10508086;28;20637;-70
2022/02/23 13:20:11;;;;;;;0.10;0.10;;;;;;;9.21;78.76;102126.94;10526923;28;20745;-71
2022/02/23 13:25:14;;;;;;;0.10;0.10;;;;;;;9.32;80.04;102118.16;10508474;28;20467;-71
2022/02/23 13:30:14;;;;;;;0.10;0.10;;;;;;;9.44;74.33;102109.19;10504956;28;20024;-71
2022/02/23 13:35:17;;;;;;;0.00;0.00;;;;;;;9.29;76.57;102119.22;10529897;28;20015;-71
2022/02/23 13:40:22;;;;;;;0.10;0.10;;;;;;;9.02;75.91;102114.25;10529878;28;20144;-71
2022/02/23 13:45:28;;;;;;;0.10;0.10;;;;;;;8.99;78.68;102100.34;10533472;28;20019;-71
2022/02/23 13:50:30;;;;;;;0.10;0.10;;;;;;;8.97;77.78;102099.59;10513951;28;20086;-71
2022/02/23 13:55:32;;;;;;;0.10;0.10;;;;;;;8.88;80.83;102092.34;10491597;28;20030;-71
2022/02/23 14:00:40;;;;;;;0.05;0.05;;;;;;;8.82;79.60;102093.66;10520554;28;20026;-71
2022/02/23 14:05:53;;;;;;;0.10;0.10;;;;;;;8.89;81.33;102076.28;10499341;28;20052;-71
2022/02/23 14:10:53;;;;;;;0.10;0.10;;;;;;;8.94;80.55;102076.78;10523399;28;20118;-72
2022/02/23 14:16:06;;;;;;;0.10;0.10;;;;;;;9.00;80.92;102070.97;10507697;28;20024;-72
2022/02/23 14:21:10;;;;;;;0.10;0.10;;;;;;;9.06;82.00;102067.84;10502364;28;20039;-72
2022/02/23 14:26:11;;;;;;;0.10;0.10;;;;;;;9.10;79.87;102057.81;10528883;28;20145;-71
2022/02/23 14:31:26;;;;;;;0.10;0.10;;;;;;;9.04;80.44;102053.81;10511940;28;20030;-72
2022/02/23 14:36:27;;;;;;;0.10;0.10;;;;;;;8.96;82.71;102048.28;10516909;28;20158;-71
2022/02/23 14:41:28;;;;;;;0.10;0.10;;;;;;;8.79;83.69;102032.78;10522710;28;20119;-72
2022/02/23 14:46:29;;;;;;;0.00;0.00;;;;;;;8.74;84.02;102025.16;10521419;28;20026;-72
2022/02/23 14:51:31;;;;;;;0.00;0.00;;;;;;;8.79;84.27;102030.13;10522898;28;20530;-72
2022/02/23 14:56:32;;;;;;;0.10;0.10;;;;;;;8.83;85.12;102020.94;10524966;28;20015;-72
2022/02/23 15:01:32;;;;;;;0.10;0.10;;;;;;;8.77;83.23;102019.59;10527149;28;20020;-71
2022/02/23 15:06:33;;;;;;;0.00;0.00;;;;;;;8.60;83.55;102026.22;10530261;28;20016;-71
2022/02/23 15:11:33;;;;;;;0.10;0.10;;;;;;;8.36;84.44;102020.06;10518785;28;20024;-72
2022/02/23 15:16:33;;;;;;;0.10;0.10;;;;;;;8.19;85.03;102016.03;10527002;28;20015;-71
2022/02/23 15:21:34;;;;;;;0.10;0.10;;;;;;;8.07;85.53;102014.28;10514754;28;20127;-71
2022/02/23 15:26:34;;;;;;;0.10;0.10;;;;;;;7.98;85.71;102014.97;10523003;28;20250;-71
2022/02/23 15:31:38;;;;;;;0.00;0.00;;;;;;;7.85;86.54;102007.94;10521533;28;20020;-72
2022/02/23 15:36:38;;;;;;;0.08;0.08;;;;;;;7.77;86.29;102001.50;10506938;28;20048;-71
2022/02/23 15:41:40;;;;;;;0.10;0.10;;;;;;;7.76;85.20;102002.44;10531061;28;20078;-72
2022/02/23 15:46:41;;;;;;;0.00;0.00;;;;;;;7.83;86.99;101982.47;10535822;28;20054;-72
2022/02/23 15:51:42;;;;;;;0.10;0.10;;;;;;;7.87;86.12;101982.13;10534356;28;20047;-71
2022/02/23 15:56:42;;;;;;;0.10;0.10;;;;;;;7.90;85.32;101976.56;10534834;28;20103;-72
2022/02/23 16:01:42;;;;;;;0.10;0.10;;;;;;;7.96;85.10;101971.78;10528795;28;20030;-71
2022/02/23 16:06:44;;;;;;;0.10;0.10;;;;;;;7.97;85.39;101973.47;10526036;28;20493;-72
2022/02/23 16:11:48;;;;;;;0.00;0.00;;;;;;;7.93;85.21;101965.75;10494750;28;20036;-71
2022/02/23 16:16:53;;;;;;;0.00;0.00;;;;;;;7.83;84.80;101956.78;10496403;28;20029;-71
2022/02/23 16:21:55;;;;;;;0.10;0.10;;;;;;;7.72;86.80;101954.91;10493174;28;20032;-72
2022/02/23 16:26:58;;;;;;;0.00;0.00;;;;;;;7.59;86.95;101943.53;10499244;28;20020;-71
2022/02/23 16:31:59;;;;;;;0.03;0.03;;;;;;;7.55;87.24;101954.47;10536931;28;20119;-71
2022/02/23 16:37:00;;;;;;;0.00;0.00;;;;;;;7.46;87.75;101950.69;10540627;28;20443;-71
2022/02/23 16:42:00;;;;;;;0.00;0.00;;;;;;;7.38;87.64;101961.81;10540407;28;20028;-72
2022/02/23 16:47:00;;;;;;;0.10;0.10;;;;;;;7.34;87.04;101957.72;10541099;28;20024;-70
2022/02/23 16:52:01;;;;;;;0.00;0.00;;;;;;;7.34;86.41;101962.16;10540257;28;20270;-71
2022/02/23 16:57:02;;;;;;;0.00;0.00;;;;;;;7.29;85.27;101967.78;10538715;28;20290;-71
2022/02/23 17:02:03;;;;;;;0.10;0.10;;;;;;;7.21;85.87;101963.06;10538540;28;20055;-71
2022/02/23 17:07:03;;;;;;;0.08;0.08;;;;;;;7.12;85.25;101966.34;10539376;28;20066;-71
2022/02/23 17:12:04;;;;;;;0.10;0.10;;;;;;;7.02;86.38;101952.06;10539110;28;20120;-71
2022/02/23 17:17:05;;;;;;;0.03;0.03;;;;;;;6.93;86.23;101947.41;10539485;28;20024;-71
2022/02/23 17:22:06;;;;;;;0.00;0.00;;;;;;;6.82;86.37;101956.09;10538420;28;20058;-71
2022/02/23 17:27:06;;;;;;;0.10;0.10;;;;;;;6.70;87.46;101963.09;10538504;28;20019;-71
2022/02/23 17:32:07;;;;;;;0.00;0.00;;;;;;;6.66;87.80;101960.75;10536909;28;20030;-71
2022/02/23 17:37:07;;;;;;;0.00;0.00;;;;;;;6.59;87.50;101965.66;10538039;28;20020;-71
2022/02/23 17:42:07;;;;;;;0.10;0.10;;;;;;;6.54;88.19;101960.69;10537914;28;20071;-70
2022/02/23 17:47:08;;;;;;;0.00;0.00;;;;;;;6.45;88.96;101971.03;10519964;28;20467;-71
2022/02/23 17:52:08;;;;;;;0.03;0.03;;;;;;;6.23;91.08;101972.50;10537193;28;20027;-71
2022/02/23 17:57:09;;;;;;;0.10;0.10;;;;;;;6.04;92.36;101967.56;10537460;28;20024;-71
2022/02/23 18:02:09;;;;;;;0.10;0.10;;;;;;;5.92;92.35;101956.94;10536872;28;20305;-71
2022/02/23 18:07:09;;;;;;;0.00;0.00;;;;;;;5.84;93.32;101960.91;10537349;28;20254;-70
2022/02/23 18:12:10;;;;;;;0.00;0.00;;;;;;;5.79;93.45;101965.69;10536808;28;20028;-71
2022/02/23 18:17:10;;;;;;;0.10;0.10;;;;;;;5.71;94.08;101964.47;10536461;28;20024;-71
2022/02/23 18:22:10;;;;;;;0.00;0.00;;;;;;;5.58;95.30;101949.38;10526497;22;20307;-68
2022/02/23 18:27:11;;;;;;;0.00;0.00;;;;;;;5.47;95.75;101941.34;10494235;28;20398;-68
2022/02/23 18:32:15;;;;;;;0.00;0.00;;;;;;;5.48;95.63;101928.97;10494046;28;20032;-68
2022/02/23 18:37:16;;;;;;;0.00;0.00;;;;;;;5.45;96.58;101922.91;10494562;28;20314;-68
2022/02/23 18:42:16;;;;;;;0.00;0.00;;;;;;;5.31;97.90;101920.31;10493800;28;20115;-68
2022/02/23 18:47:17;;;;;;;0.00;0.00;;;;;;;5.15;98.51;101920.47;10494250;28;20021;-68
2022/02/23 18:52:18;;;;;;;0.00;0.00;;;;;;;5.03;99.92;101913.28;10493362;28;20103;-68
2022/02/23 18:57:19;;;;;;;0.00;0.00;;;;;;;4.92;100.00;101907.84;10493042;28;20135;-68
2022/02/23 19:02:19;;;;;;;0.00;0.00;;;;;;;4.94;100.00;101913.88;10475239;28;20475;-69
2022/02/23 19:07:20;;;;;;;0.00;0.00;;;;;;;5.02;100.00;101900.19;10475880;28;20032;-69
2022/02/23 19:12:20;;;;;;;0.00;0.00;;;;;;;5.14;100.00;101896.78;10493189;28;20028;-69
2022/02/23 19:17:20;;;;;;;0.00;0.00;;;;;;;5.26;100.00;101890.69;10492332;28;20282;-69
2022/02/23 19:22:21;;;;;;;0.00;0.00;;;;;;;5.35;100.00;101873.41;10470404;28;20403;-69
2022/02/23 19:27:22;;;;;;;0.00;0.00;;;;;;;5.43;100.00;101877.25;10451275;28;20020;-69
2022/02/23 19:32:22;;;;;;;0.00;0.00;;;;;;;5.50;99.31;101871.56;10432968;28;20024;-68
2022/02/23 19:37:23;;;;;;;0.00;0.00;;;;;;;5.56;98.76;101873.81;10450819;28;20028;-69
2022/02/23 19:42:24;;;;;;;0.00;0.00;;;;;;;5.65;98.23;101860.00;10450413;28;20054;-69
2022/02/23 19:47:24;;;;;;;0.00;0.00;;;;;;;5.77;97.38;101863.63;10450644;28;20354;-69
2022/02/23 19:52:24;;;;;;;0.00;0.00;;;;;;;5.88;95.12;101855.81;10472316;28;20028;-69
2022/02/23 19:57:25;;;;;;;0.00;0.00;;;;;;;5.99;94.23;101850.69;10491837;28;20016;-69
2022/02/23 20:02:25;;;;;;;0.00;0.00;;;;;;;6.05;93.99;101852.03;10491902;28;20041;-69
2022/02/23 20:07:26;;;;;;;0.00;0.00;;;;;;;6.08;93.49;101834.16;10490520;28;20020;-73
2022/02/23 20:12:27;;;;;;;0.00;0.00;;;;;;;6.14;94.92;101832.91;10490929;28;20393;-73
2022/02/23 20:17:27;;;;;;;0.00;0.00;;;;;;;6.17;93.90;101831.81;10473594;28;20031;-73
2022/02/23 20:22:28;;;;;;;0.00;0.00;;;;;;;6.18;93.63;101821.16;10484282;28;20509;-73
2022/02/23 20:27:28;;;;;;;0.00;0.00;;;;;;;6.19;93.83;101814.88;10450756;28;20437;-73
2022/02/23 20:32:28;;;;;;;0.00;0.00;;;;;;;6.11;95.01;101796.94;10457298;28;20020;-73
2022/02/23 20:37:31;;;;;;;0.00;0.00;;;;;;;6.13;95.23;101786.22;10439381;28;20055;-74
2022/02/23 20:42:33;;;;;;;0.00;0.00;;;;;;;6.13;96.15;101780.94;10456994;28;20102;-73
2022/02/23 20:47:34;;;;;;;0.00;0.00;;;;;;;6.16;94.20;101774.59;10456918;28;20096;-74
2022/02/23 20:52:35;;;;;;;0.00;0.00;;;;;;;6.16;95.15;101759.56;10473635;28;20082;-74
2022/02/23 20:57:36;;;;;;;0.00;0.00;;;;;;;6.15;95.21;101751.75;10498426;28;20478;-74
2022/02/23 21:02:36;;;;;;;0.00;0.00;;;;;;;6.15;95.02;101741.16;10479451;28;20498;-73
2022/02/23 21:07:38;;;;;;;0.00;0.00;;;;;;;6.17;95.57;101744.53;10497561;28;20021;-74
2022/02/23 21:12:39;;;;;;;0.00;0.00;;;;;;;6.16;95.04;101722.50;10497075;28;20027;-73
2022/02/23 21:17:40;;;;;;;0.00;0.00;;;;;;;6.14;95.71;101716.50;10479273;28;20498;-73
2022/02/23 21:22:42;;;;;;;0.00;0.00;;;;;;;6.12;95.01;101716.59;10488823;28;20016;-73
2022/02/23 21:27:43;;;;;;;0.00;0.00;;;;;;;6.13;93.61;101698.94;10492525;28;20457;-74
2022/02/23 21:32:46;;;;;;;0.00;0.00;;;;;;;6.13;93.70;101704.22;10494842;28;20047;-73
2022/02/23 21:37:47;;;;;;;0.00;0.00;;;;;;;6.15;93.84;101697.03;10495005;28;20487;-74
2022/02/23 21:42:48;;;;;;;0.00;0.00;;;;;;;6.12;95.07;101670.78;10474475;28;20026;-74
2022/02/23 21:47:48;;;;;;;0.00;0.00;;;;;;;6.09;94.74;101673.66;10494261;28;20104;-73
2022/02/23 21:52:49;;;;;;;0.00;0.00;;;;;;;6.11;92.83;101645.31;10475569;28;20173;-73
2022/02/23 21:57:50;;;;;;;0.00;0.00;;;;;;;6.23;92.44;101654.16;10494326;28;20104;-73
2022/02/23 22:02:52;;;;;;;0.00;0.00;;;;;;;6.27;91.78;101647.69;10493608;28;20021;-74
2022/02/23 22:07:52;;;;;;;0.00;0.00;;;;;;;6.29;92.25;101638.69;10494078;28;20024;-74
2022/02/23 22:12:53;;;;;;;0.00;0.00;;;;;;;6.30;93.34;101629.78;10493379;28;20032;-74
2022/02/23 22:17:53;;;;;;;0.00;0.00;;;;;;;6.27;93.35;101622.06;10494028;28;20386;-74
2022/02/23 22:22:53;;;;;;;0.00;0.00;;;;;;;6.27;92.52;101619.41;10487884;28;20078;-74
2022/02/23 22:27:54;;;;;;;0.00;0.00;;;;;;;6.28;92.43;101599.97;10493034;28;20020;-74
2022/02/23 22:32:55;;;;;;;0.00;0.00;;;;;;;6.29;92.36;101606.94;10474785;28;20282;-73
2022/02/23 22:37:57;;;;;;;0.00;0.00;;;;;;;6.30;92.79;101595.38;10492578;28;20118;-74
2022/02/23 22:42:58;;;;;;;0.10;0.10;;;;;;;6.30;94.45;101587.44;10492317;28;20020;-73
2022/02/23 22:47:58;;;;;;;0.00;0.00;;;;;;;6.27;93.57;101585.03;10493266;28;20024;-73
2022/02/23 22:52:58;;;;;;;0.00;0.00;;;;;;;6.30;92.84;101570.72;10490078;28;20430;-73
2022/02/23 22:57:58;;;;;;;0.00;0.00;;;;;;;6.34;92.75;101566.88;10493383;28;20103;-73
2022/02/23 23:02:59;;;;;;;0.00;0.00;;;;;;;6.34;93.44;101557.16;10474308;28;20270;-73
2022/02/23 23:07:59;;;;;;;0.00;0.00;;;;;;;6.32;94.48;101545.84;10492865;28;20024;-73
2022/02/23 23:12:59;;;;;;;0.10;0.10;;;;;;;6.28;95.64;101544.41;10491774;28;20261;-74
2022/02/23 23:18:00;;;;;;;0.00;0.00;;;;;;;6.25;95.48;101522.59;10473593;28;20429;-74
2022/02/23 23:23:00;;;;;;;0.00;0.00;;;;;;;6.26;95.28;101511.91;10491069;28;20028;-73